Flight Track Log - Related Links

Times and Time Zones

All times are in EDT time to prevent confusion due to time zone crossing. See the N100PM flight status page for this flight to view local times or setup timezone preferences in your user account.

Time Position Orientation Groundspeed Altitude Reporting Facility
EDT Latitude Longitude Course Direction KTS MPH feet Rate Location/Type
Sat 07:51:00 AM 26.1889 -81.7273 North  Level Estimated
Sat 07:52:00 AM 26.1983 -81.7284 354° North  Level FlightAware Approximate
Sat 07:53:00 AM 26.2077 -81.7296 354° North  Level FlightAware Approximate
Sat 07:54:00 AM 26.2171 -81.7307 354° North  Level FlightAware Approximate
Sat 07:55:00 AM 26.2265 -81.7318 354° North  Level FlightAware Approximate
Sat 07:56:00 AM 26.2359 -81.7329 354° North  Level FlightAware Approximate
Sat 07:57:00 AM 26.2453 -81.7341 354° North  Level FlightAware Approximate
Sat 07:58:00 AM 26.2546 -81.7352 354° North  Level FlightAware Approximate
Sat 07:59:00 AM 26.2640 -81.7363 354° North  Level FlightAware Approximate
Sat 08:00:00 AM 26.2734 -81.7375 354° North  Level FlightAware Approximate
Sat 08:01:00 AM 26.2828 -81.7386 354° North  Level FlightAware Approximate
Sat 08:02:00 AM 26.2922 -81.7397 354° North  Level FlightAware Approximate
Sat 08:03:00 AM 26.3016 -81.7409 354° North  Level FlightAware Approximate
Sat 08:04:00 AM 26.3110 -81.7420 354° North  Level FlightAware Approximate
Sat 08:05:00 AM 26.3204 -81.7431 354° North  Level FlightAware Approximate
Sat 08:06:00 AM 26.3298 -81.7442 354° North  Level FlightAware Approximate
Sat 08:07:00 AM 26.3391 -81.7454 354° North  Level FlightAware Approximate
Sat 08:08:00 AM 26.3485 -81.7465 354° North  Level FlightAware Approximate
Sat 08:09:00 AM 26.3579 -81.7476 354° North  Level FlightAware Approximate
Sat 08:10:00 AM 26.3673 -81.7487 354° North  Level FlightAware Approximate
Sat 08:11:00 AM 26.3767 -81.7499 354° North  Level FlightAware Approximate
Sat 08:12:00 AM 26.3861 -81.7510 354° North  Level FlightAware Approximate
Sat 08:13:00 AM 26.3955 -81.7521 354° North  Level FlightAware Approximate
Sat 08:14:00 AM 26.4049 -81.7533 354° North  Level FlightAware Approximate
Sat 08:15:00 AM 26.4143 -81.7544 354° North  Level FlightAware Approximate
Sat 08:16:00 AM 26.4237 -81.7555 354° North  Level FlightAware Approximate
Sat 08:17:00 AM 26.4331 -81.7566 354° North  Level FlightAware Approximate
Sat 08:18:00 AM 26.4331 -81.7461 103° East  Level Estimated
Sat 08:19:00 AM 26.4346 -81.7357 81° East  Level FlightAware Approximate
Sat 08:20:00 AM 26.4361 -81.7253 81° East  Level FlightAware Approximate
Sat 08:21:00 AM 26.4377 -81.7149 81° East  Level FlightAware Approximate
Sat 08:22:00 AM 26.4392 -81.7045 81° East  Level FlightAware Approximate
Sat 08:23:00 AM 26.4407 -81.6940 81° East  Level FlightAware Approximate
Sat 08:24:00 AM 26.4423 -81.6836 81° East  Level FlightAware Approximate
Sat 08:25:00 AM 26.4438 -81.6732 81° East  Level FlightAware Approximate
Sat 08:26:00 AM 26.4453 -81.6628 81° East  Level FlightAware Approximate
Sat 08:27:00 AM 26.4469 -81.6524 81° East  Level FlightAware Approximate
Sat 08:28:00 AM 26.4484 -81.6420 81° East  Level FlightAware Approximate
Sat 08:29:00 AM 26.4499 -81.6316 81° East  Level FlightAware Approximate
Sat 08:30:00 AM 26.4514 -81.6212 81° East  Level FlightAware Approximate
Sat 08:31:00 AM 26.4529 -81.6108 81° East  Level FlightAware Approximate
Sat 08:32:00 AM 26.4545 -81.6003 81° East  Level FlightAware Approximate
Sat 08:33:00 AM 26.4560 -81.5899 81° East  Level FlightAware Approximate
Sat 08:34:00 AM 26.4575 -81.5795 81° East  Level FlightAware Approximate
Sat 08:35:00 AM 26.4590 -81.5691 81° East  Level FlightAware Approximate
Sat 08:36:00 AM 26.4605 -81.5587 81° East  Level FlightAware Approximate
Sat 08:37:00 AM 26.4621 -81.5483 81° East  Level FlightAware Approximate
Sat 08:38:00 AM 26.4636 -81.5379 81° East  Level FlightAware Approximate
Sat 08:39:00 AM 26.4651 -81.5275 81° East  Level FlightAware Approximate
Sat 08:40:00 AM 26.4666 -81.5171 81° East  Level FlightAware Approximate
Sat 08:41:00 AM 26.4681 -81.5066 81° East  Level FlightAware Approximate
Sat 08:42:00 AM 26.4665 -81.5164 119° Southeast  Level FlightAware Approximate
Sat 08:43:00 AM 26.4619 -81.5072 119° Southeast  Level FlightAware Approximate
Sat 08:44:00 AM 26.4573 -81.4979 119° Southeast  Level FlightAware Approximate
Sat 08:45:00 AM 26.4527 -81.4887 119° Southeast  Level FlightAware Approximate
Sat 08:46:00 AM 26.4492 -81.4791 103° East  Level FlightAware Approximate
Sat 08:47:00 AM 26.4471 -81.4688 103° East  Level FlightAware Approximate
Sat 08:48:00 AM 26.4450 -81.4585 103° East  Level FlightAware Approximate
Sat 08:49:00 AM 26.4430 -81.4482 103° East  Level FlightAware Approximate
Sat 08:50:00 AM 26.4409 -81.4379 103° East  Level FlightAware Approximate
Sat 08:51:00 AM 26.4389 -81.4276 103° East  Level FlightAware Approximate
Sat 08:52:00 AM 26.4368 -81.4173 103° East  Level FlightAware Approximate
Sat 08:53:00 AM 26.4347 -81.4070 103° East  Level FlightAware Approximate
Sat 08:54:00 AM 26.4333 -81.4000 103° East  Level FlightAware Approximate
Sat 08:55:00 AM 26.4338 -81.4014 103° East  Level Estimated
Sat 08:56:00 AM 26.4333 -81.4000 103° East  Level FlightAware Approximate
Sat 08:57:00 AM 26.4338 -81.4014 103° East  Level Estimated
Sat 08:58:00 AM 26.4333 -81.4000 103° East  Level FlightAware Approximate
Sat 08:59:00 AM 26.4338 -81.4014 103° East  Level Estimated
Sat 09:00:00 AM 26.4333 -81.4000 103° East  Level FlightAware Approximate
Sat 09:01:00 AM 26.4338 -81.4014 103° East  Level Estimated
Sat 09:02:00 AM 26.4333 -81.4000 103° East  Level FlightAware Approximate
Sat 09:03:00 AM 26.4338 -81.4014 103° East  Level Estimated
Sat 09:04:00 AM 26.4333 -81.4000 103° East  Level FlightAware Approximate
Sat 09:05:00 AM 26.4338 -81.4014 103° East  Level Estimated
Sat 09:06:00 AM 26.4333 -81.4000 103° East  Level FlightAware Approximate
Sat 09:07:00 AM 26.4338 -81.4014 103° East  Level Estimated
Sat 09:08:00 AM 26.4333 -81.4000 103° East  Level FlightAware Approximate
Sat 09:09:00 AM 26.4338 -81.4014 103° East  Level Estimated
Sat 09:10:00 AM 26.4333 -81.4000 103° East  Level FlightAware Approximate
Sat 09:11:00 AM 26.4338 -81.4014 103° East  Level Estimated
Sat 09:12:00 AM 26.4333 -81.4000 103° East  Level FlightAware Approximate
Sat 09:13:00 AM 26.4338 -81.4014 103° East  Level Estimated
Sat 09:14:00 AM 26.4333 -81.4000 103° East  Level FlightAware Approximate
Sat 09:15:00 AM 26.4338 -81.4014 103° East  Level Estimated
Sat 09:16:00 AM 26.4333 -81.4000 103° East  Level FlightAware Approximate

Login

Don't have an account? Register now (free) for customized features, flight alerts, and more!